WZZ62 LHBP-UBBB
Flight info
| Callsign | WZZ62 |
|---|---|
| Flight time | N/A |
| Altitude | 37000 |
| Route | GAZDA DCT MAVIR DCT INVED DCT DINRO N743 UDROS UM859 KARDE UN644 ROLIN N644 LAGAS DCT DISKA M737 VERCA M747 LUSAL N319 PENOB T447 INSAN |
| Aircraft | A320/M-SDE1E2E3FGIJ1J4RWXY/LB1 |
Departure
| Time | N/A |
|---|---|
| Airport | Budapest Liszt Ferenc International Airport (LHBP) |
Arrival
| Time | 2026-04-28 22:07 |
|---|---|
| Airport | Heydar Aliyev International Airport (UBBB) |
| Time | Latitude | Longitude | Altitude | Speed | Heading |
|---|---|---|---|---|---|
| 2026-04-28 20:25 | 42.16295 | 35.33245 | 35158 ft | 466 kts | 101° |
| 2026-04-28 20:26 | 42.15675 | 35.37524 | 35162 ft | 466 kts | 101° |
| 2026-04-28 20:26 | 42.15064 | 35.41758 | 35312 ft | 467 kts | 101° |
| 2026-04-28 20:26 | 42.14448 | 35.46041 | 35701 ft | 466 kts | 101° |
| 2026-04-28 20:26 | 42.13833 | 35.50327 | 36050 ft | 466 kts | 102° |
| 2026-04-28 20:27 | 42.13215 | 35.54609 | 36377 ft | 466 kts | 102° |
| 2026-04-28 20:27 | 42.12593 | 35.58902 | 36695 ft | 466 kts | 102° |
| 2026-04-28 20:27 | 42.11967 | 35.63182 | 37002 ft | 466 kts | 102° |
| 2026-04-28 20:27 | 42.11338 | 35.67467 | 37144 ft | 467 kts | 102° |
| 2026-04-28 20:28 | 42.10707 | 35.71757 | 37164 ft | 467 kts | 102° |
| 2026-04-28 20:28 | 42.09440 | 35.80337 | 37166 ft | 477 kts | 102° |
| 2026-04-28 20:29 | 42.08132 | 35.89172 | 37167 ft | 484 kts | 102° |
| 2026-04-28 20:29 | 42.06815 | 35.98064 | 37167 ft | 484 kts | 102° |
| 2026-04-28 20:30 | 42.05488 | 36.06951 | 37164 ft | 484 kts | 102° |
| 2026-04-28 20:30 | 42.04157 | 36.15767 | 37157 ft | 484 kts | 103° |
| 2026-04-28 20:31 | 42.02810 | 36.24643 | 37170 ft | 485 kts | 103° |
| 2026-04-28 20:31 | 42.01460 | 36.33522 | 37172 ft | 485 kts | 103° |
| 2026-04-28 20:32 | 42.00101 | 36.42404 | 37169 ft | 485 kts | 103° |
| 2026-04-28 20:32 | 41.98740 | 36.51276 | 37172 ft | 485 kts | 103° |
| 2026-04-28 20:33 | 41.97375 | 36.60095 | 37171 ft | 485 kts | 103° |
| 2026-04-28 20:33 | 41.95995 | 36.68951 | 37161 ft | 485 kts | 103° |
| 2026-04-28 20:34 | 41.94606 | 36.77813 | 37164 ft | 485 kts | 103° |
| 2026-04-28 20:34 | 41.93224 | 36.86609 | 37159 ft | 485 kts | 103° |
| 2026-04-28 20:35 | 41.91828 | 36.95467 | 37153 ft | 485 kts | 103° |
| 2026-04-28 20:35 | 41.90508 | 37.04344 | 37160 ft | 486 kts | 97° |
| 2026-04-28 20:36 | 41.90268 | 37.13427 | 37155 ft | 487 kts | 92° |
| 2026-04-28 20:36 | 41.90138 | 37.22524 | 37150 ft | 488 kts | 92° |
| 2026-04-28 20:37 | 41.89995 | 37.31567 | 37153 ft | 488 kts | 92° |
| 2026-04-28 20:37 | 41.89847 | 37.40676 | 37153 ft | 488 kts | 92° |
| 2026-04-28 20:38 | 41.89696 | 37.49794 | 37158 ft | 489 kts | 92° |
| 2026-04-28 20:38 | 41.89540 | 37.58908 | 37154 ft | 489 kts | 92° |
| 2026-04-28 20:39 | 41.89373 | 37.68029 | 37154 ft | 489 kts | 92° |
| 2026-04-28 20:39 | 41.89203 | 37.77091 | 37153 ft | 489 kts | 93° |
| 2026-04-28 20:40 | 41.89024 | 37.86213 | 37153 ft | 489 kts | 93° |
| 2026-04-28 20:40 | 41.88833 | 37.95337 | 37154 ft | 489 kts | 93° |
| 2026-04-28 20:41 | 41.88631 | 38.04465 | 37153 ft | 490 kts | 93° |
| 2026-04-28 20:41 | 41.88421 | 38.13538 | 37158 ft | 490 kts | 93° |
| 2026-04-28 20:42 | 41.88213 | 38.22669 | 37150 ft | 490 kts | 93° |
| 2026-04-28 20:42 | 41.87998 | 38.31799 | 37148 ft | 490 kts | 93° |
| 2026-04-28 20:43 | 41.87770 | 38.40946 | 37148 ft | 490 kts | 94° |
| 2026-04-28 20:43 | 41.87538 | 38.50077 | 37144 ft | 490 kts | 94° |
| 2026-04-28 20:44 | 41.87302 | 38.59155 | 37145 ft | 490 kts | 94° |
| 2026-04-28 20:44 | 41.87051 | 38.68295 | 37143 ft | 490 kts | 94° |
| 2026-04-28 20:45 | 41.86794 | 38.77437 | 37143 ft | 490 kts | 94° |
| 2026-04-28 20:45 | 41.86538 | 38.86516 | 37143 ft | 490 kts | 94° |
| 2026-04-28 20:46 | 41.86270 | 38.95645 | 37143 ft | 490 kts | 94° |
| 2026-04-28 20:46 | 41.85980 | 39.04782 | 37143 ft | 490 kts | 95° |
| 2026-04-28 20:47 | 41.85696 | 39.13920 | 37148 ft | 490 kts | 94° |
| 2026-04-28 20:47 | 41.85407 | 39.23064 | 37151 ft | 490 kts | 95° |
| 2026-04-28 20:48 | 41.85112 | 39.32133 | 37149 ft | 490 kts | 95° |
| 2026-04-28 20:48 | 41.84803 | 39.41262 | 37149 ft | 490 kts | 95° |
| 2026-04-28 20:49 | 41.84484 | 39.50394 | 37151 ft | 490 kts | 95° |
| 2026-04-28 20:49 | 41.84160 | 39.59512 | 37148 ft | 490 kts | 95° |
| 2026-04-28 20:50 | 41.83840 | 39.68633 | 37145 ft | 490 kts | 95° |
| 2026-04-28 20:50 | 41.83513 | 39.77692 | 37144 ft | 489 kts | 95° |
| 2026-04-28 20:51 | 41.83169 | 39.86809 | 37145 ft | 490 kts | 95° |
| 2026-04-28 20:51 | 41.82820 | 39.95924 | 37146 ft | 490 kts | 95° |
| 2026-04-28 20:52 | 41.82468 | 40.05047 | 37149 ft | 490 kts | 95° |
| 2026-04-28 20:52 | 41.82168 | 40.12623 | 37147 ft | 490 kts | 95° |
| 2026-04-28 20:53 | 41.81550 | 40.27764 | 37143 ft | 489 kts | 96° |
| 2026-04-28 20:53 | 41.81176 | 40.36873 | 37142 ft | 489 kts | 96° |
| 2026-04-28 20:54 | 41.80863 | 40.44435 | 37145 ft | 489 kts | 96° |
| 2026-04-28 20:54 | 41.80403 | 40.54999 | 37139 ft | 489 kts | 96° |
| 2026-04-28 20:55 | 41.79989 | 40.64090 | 37139 ft | 489 kts | 96° |
| 2026-04-28 20:55 | 41.79635 | 40.71637 | 37140 ft | 488 kts | 96° |
| 2026-04-28 20:56 | 41.79188 | 40.80725 | 37138 ft | 488 kts | 96° |
| 2026-04-28 20:56 | 41.78732 | 40.89809 | 37144 ft | 489 kts | 96° |
| 2026-04-28 20:57 | 41.78281 | 40.98826 | 37146 ft | 488 kts | 97° |
| 2026-04-28 20:57 | 41.77816 | 41.07908 | 37145 ft | 488 kts | 97° |
| 2026-04-28 20:58 | 41.77350 | 41.16982 | 37148 ft | 488 kts | 97° |
| 2026-04-28 20:58 | 41.76872 | 41.26049 | 37150 ft | 488 kts | 97° |
| 2026-04-28 20:59 | 41.76394 | 41.35053 | 37146 ft | 488 kts | 97° |
| 2026-04-28 20:59 | 41.75905 | 41.44111 | 37146 ft | 488 kts | 97° |
| 2026-04-28 21:00 | 41.75411 | 41.53160 | 37146 ft | 487 kts | 97° |
| 2026-04-28 21:00 | 41.74912 | 41.62212 | 37149 ft | 487 kts | 97° |
| 2026-04-28 21:01 | 41.74396 | 41.71210 | 37151 ft | 487 kts | 97° |
| 2026-04-28 21:01 | 41.73865 | 41.80225 | 37151 ft | 487 kts | 97° |
| 2026-04-28 21:02 | 41.73333 | 41.89282 | 37147 ft | 487 kts | 97° |
| 2026-04-28 21:02 | 41.72799 | 41.98307 | 37145 ft | 486 kts | 97° |
| 2026-04-28 21:03 | 41.72642 | 42.07339 | 37016 ft | 494 kts | 86° |
| 2026-04-28 21:03 | 41.73294 | 42.11893 | 36687 ft | 501 kts | 76° |
| 2026-04-28 21:03 | 41.73953 | 42.16367 | 36861 ft | 479 kts | 91° |
| 2026-04-28 21:04 | 41.73608 | 42.20695 | 37074 ft | 462 kts | 108° |
| 2026-04-28 21:04 | 41.72795 | 42.24843 | 37126 ft | 462 kts | 106° |
| 2026-04-28 21:04 | 41.71862 | 42.33371 | 37114 ft | 464 kts | 98° |
| 2026-04-28 21:05 | 41.71356 | 42.41942 | 37109 ft | 465 kts | 98° |
| 2026-04-28 21:05 | 41.70716 | 42.50528 | 37100 ft | 463 kts | 100° |
| 2026-04-28 21:06 | 41.69888 | 42.59076 | 37102 ft | 463 kts | 101° |
| 2026-04-28 21:06 | 41.69017 | 42.67617 | 37110 ft | 464 kts | 101° |
| 2026-04-28 21:07 | 41.68177 | 42.76180 | 37101 ft | 464 kts | 101° |
| 2026-04-28 21:07 | 41.67367 | 42.84681 | 37101 ft | 464 kts | 101° |
| 2026-04-28 21:08 | 41.66654 | 42.93266 | 37102 ft | 465 kts | 98° |
| 2026-04-28 21:08 | 41.66113 | 43.01887 | 37111 ft | 465 kts | 98° |
| 2026-04-28 21:09 | 41.65579 | 43.10500 | 37117 ft | 465 kts | 98° |
| 2026-04-28 21:09 | 41.64990 | 43.19046 | 37120 ft | 464 kts | 99° |
| 2026-04-28 21:10 | 41.64362 | 43.27644 | 37121 ft | 464 kts | 99° |
| 2026-04-28 21:10 | 41.63731 | 43.36309 | 37124 ft | 464 kts | 99° |
| 2026-04-28 21:11 | 41.63119 | 43.44830 | 37129 ft | 464 kts | 99° |
| 2026-04-28 21:11 | 41.62501 | 43.53412 | 37130 ft | 464 kts | 99° |
| 2026-04-28 21:12 | 41.61877 | 43.61955 | 37139 ft | 464 kts | 99° |
| 2026-04-28 21:12 | 41.61234 | 43.70535 | 37147 ft | 465 kts | 99° |
| 2026-04-28 21:13 | 41.60589 | 43.79119 | 37147 ft | 464 kts | 99° |
| 2026-04-28 21:13 | 41.59941 | 43.87705 | 37155 ft | 464 kts | 99° |
| 2026-04-28 21:14 | 41.59292 | 43.96236 | 37159 ft | 465 kts | 99° |
| 2026-04-28 21:14 | 41.58632 | 44.04810 | 37160 ft | 465 kts | 99° |
| 2026-04-28 21:15 | 41.57957 | 44.13410 | 37158 ft | 465 kts | 100° |
| 2026-04-28 21:15 | 41.57281 | 44.21939 | 37165 ft | 465 kts | 100° |
| 2026-04-28 21:16 | 41.56528 | 44.30511 | 37172 ft | 465 kts | 101° |
| 2026-04-28 21:16 | 41.55665 | 44.39068 | 37175 ft | 465 kts | 102° |
| 2026-04-28 21:17 | 41.54789 | 44.47609 | 37182 ft | 465 kts | 102° |
| 2026-04-28 21:17 | 41.53927 | 44.56161 | 37185 ft | 465 kts | 102° |
| 2026-04-28 21:18 | 41.53080 | 44.64651 | 37182 ft | 464 kts | 102° |
| 2026-04-28 21:18 | 41.52218 | 44.73195 | 37181 ft | 464 kts | 102° |
| 2026-04-28 21:19 | 41.51351 | 44.81728 | 37182 ft | 464 kts | 102° |
| 2026-04-28 21:19 | 41.50476 | 44.90252 | 37178 ft | 464 kts | 102° |
| 2026-04-28 21:20 | 41.49603 | 44.98715 | 37178 ft | 463 kts | 102° |
| 2026-04-28 21:20 | 41.48716 | 45.07224 | 37177 ft | 463 kts | 102° |
| 2026-04-28 21:21 | 41.47822 | 45.15721 | 37174 ft | 463 kts | 102° |
| 2026-04-28 21:21 | 41.46785 | 45.24165 | 37174 ft | 459 kts | 110° |
| 2026-04-28 21:22 | 41.44247 | 45.31800 | 37174 ft | 445 kts | 129° |
| 2026-04-28 21:22 | 41.40327 | 45.37946 | 37165 ft | 437 kts | 139° |
| 2026-04-28 21:23 | 41.36185 | 45.43858 | 37164 ft | 438 kts | 138° |
| 2026-04-28 21:23 | 41.32030 | 45.49806 | 37163 ft | 437 kts | 138° |
| 2026-04-28 21:24 | 41.27875 | 45.55725 | 37166 ft | 437 kts | 139° |
| 2026-04-28 21:24 | 41.23746 | 45.61589 | 37158 ft | 437 kts | 137° |
| 2026-04-28 21:25 | 41.20377 | 45.68411 | 37158 ft | 451 kts | 118° |
| 2026-04-28 21:25 | 41.18273 | 45.76302 | 37155 ft | 454 kts | 114° |
| 2026-04-28 21:26 | 41.16190 | 45.84201 | 37156 ft | 453 kts | 114° |
| 2026-04-28 21:26 | 41.14107 | 45.92033 | 37164 ft | 453 kts | 115° |
| 2026-04-28 21:27 | 41.12004 | 45.99931 | 37153 ft | 453 kts | 114° |
| 2026-04-28 21:27 | 41.09902 | 46.07806 | 37156 ft | 453 kts | 114° |
| 2026-04-28 21:28 | 41.07800 | 46.15685 | 37163 ft | 453 kts | 114° |
| 2026-04-28 21:28 | 41.05689 | 46.23552 | 37160 ft | 453 kts | 115° |
| 2026-04-28 21:29 | 41.03579 | 46.31352 | 37157 ft | 453 kts | 115° |
| 2026-04-28 21:29 | 41.01479 | 46.39209 | 37154 ft | 453 kts | 114° |
| 2026-04-28 21:30 | 40.99389 | 46.47077 | 37154 ft | 453 kts | 114° |
| 2026-04-28 21:30 | 40.97292 | 46.54928 | 37157 ft | 452 kts | 115° |
| 2026-04-28 21:31 | 40.95179 | 46.62769 | 37166 ft | 452 kts | 115° |
| 2026-04-28 21:31 | 40.93074 | 46.70543 | 37169 ft | 452 kts | 115° |
| 2026-04-28 21:32 | 40.90951 | 46.78356 | 37179 ft | 452 kts | 115° |
| 2026-04-28 21:32 | 40.88823 | 46.86172 | 37185 ft | 452 kts | 115° |
| 2026-04-28 21:33 | 40.86686 | 46.93981 | 37188 ft | 452 kts | 115° |
| 2026-04-28 21:33 | 40.84555 | 47.01729 | 37189 ft | 452 kts | 115° |
| 2026-04-28 21:34 | 40.82404 | 47.09523 | 37189 ft | 452 kts | 115° |
| 2026-04-28 21:34 | 40.80245 | 47.17317 | 37190 ft | 452 kts | 115° |
| 2026-04-28 21:35 | 40.78077 | 47.25101 | 37190 ft | 452 kts | 115° |
| 2026-04-28 21:35 | 40.75901 | 47.32884 | 37188 ft | 452 kts | 115° |
| 2026-04-28 21:36 | 40.73729 | 47.40612 | 37190 ft | 452 kts | 115° |
| 2026-04-28 21:36 | 40.71539 | 47.48401 | 36873 ft | 453 kts | 115° |
| 2026-04-28 21:37 | 40.70447 | 47.52289 | 36614 ft | 452 kts | 115° |
| 2026-04-28 21:37 | 40.69354 | 47.56172 | 36360 ft | 452 kts | 115° |
| 2026-04-28 21:37 | 40.68257 | 47.60060 | 36104 ft | 452 kts | 115° |
| 2026-04-28 21:37 | 40.67159 | 47.63941 | 35852 ft | 452 kts | 115° |
| 2026-04-28 21:38 | 40.66078 | 47.67765 | 35607 ft | 450 kts | 115° |
| 2026-04-28 21:38 | 40.64989 | 47.71610 | 35337 ft | 447 kts | 115° |
| 2026-04-28 21:38 | 40.63905 | 47.75433 | 34891 ft | 444 kts | 115° |
| 2026-04-28 21:38 | 40.62826 | 47.79238 | 34395 ft | 443 kts | 115° |
| 2026-04-28 21:39 | 40.61750 | 47.83021 | 33861 ft | 441 kts | 115° |
| 2026-04-28 21:39 | 40.60675 | 47.86791 | 33419 ft | 437 kts | 115° |
| 2026-04-28 21:39 | 40.59608 | 47.90518 | 32925 ft | 433 kts | 116° |
| 2026-04-28 21:39 | 40.58284 | 47.94029 | 32441 ft | 424 kts | 127° |
| 2026-04-28 21:40 | 40.56586 | 47.97071 | 31963 ft | 414 kts | 136° |
| 2026-04-28 21:40 | 40.54568 | 47.99718 | 31512 ft | 407 kts | 141° |
| 2026-04-28 21:40 | 40.52521 | 48.02264 | 31063 ft | 403 kts | 140° |
| 2026-04-28 21:40 | 40.50498 | 48.04793 | 30614 ft | 400 kts | 140° |
| 2026-04-28 21:41 | 40.48496 | 48.07302 | 30161 ft | 396 kts | 140° |
| 2026-04-28 21:41 | 40.46637 | 48.09956 | 29695 ft | 395 kts | 130° |
| 2026-04-28 21:41 | 40.45184 | 48.13011 | 29256 ft | 396 kts | 120° |
| 2026-04-28 21:41 | 40.44014 | 48.16268 | 28838 ft | 392 kts | 119° |
| 2026-04-28 21:42 | 40.42860 | 48.19478 | 28415 ft | 388 kts | 119° |
| 2026-04-28 21:42 | 40.41718 | 48.22639 | 28001 ft | 386 kts | 119° |
| 2026-04-28 21:42 | 40.40574 | 48.25804 | 27585 ft | 383 kts | 119° |
| 2026-04-28 21:42 | 40.39435 | 48.28957 | 27174 ft | 381 kts | 119° |
| 2026-04-28 21:43 | 40.38305 | 48.32084 | 26761 ft | 378 kts | 119° |
| 2026-04-28 21:43 | 40.37180 | 48.35190 | 26353 ft | 376 kts | 119° |
| 2026-04-28 21:43 | 40.36059 | 48.38277 | 25937 ft | 374 kts | 119° |
| 2026-04-28 21:43 | 40.34969 | 48.41282 | 25510 ft | 373 kts | 118° |
| 2026-04-28 21:44 | 40.33833 | 48.44409 | 25078 ft | 371 kts | 118° |
| 2026-04-28 21:44 | 40.32723 | 48.47460 | 24628 ft | 371 kts | 118° |
| 2026-04-28 21:44 | 40.31630 | 48.50462 | 24187 ft | 370 kts | 118° |
| 2026-04-28 21:44 | 40.30519 | 48.53505 | 23727 ft | 370 kts | 118° |
| 2026-04-28 21:45 | 40.29410 | 48.56547 | 23230 ft | 369 kts | 118° |
| 2026-04-28 21:45 | 40.28310 | 48.59571 | 22766 ft | 367 kts | 118° |
| 2026-04-28 21:45 | 40.27218 | 48.62575 | 22305 ft | 364 kts | 118° |
| 2026-04-28 21:45 | 40.26130 | 48.65554 | 21853 ft | 361 kts | 118° |
| 2026-04-28 21:46 | 40.25050 | 48.68501 | 21408 ft | 359 kts | 118° |
| 2026-04-28 21:46 | 40.23964 | 48.71448 | 20950 ft | 357 kts | 118° |
| 2026-04-28 21:46 | 40.22902 | 48.74329 | 20496 ft | 356 kts | 118° |
| 2026-04-28 21:46 | 40.21832 | 48.77232 | 20050 ft | 354 kts | 118° |
| 2026-04-28 21:47 | 40.20767 | 48.80136 | 19596 ft | 353 kts | 118° |
| 2026-04-28 21:47 | 40.19710 | 48.83022 | 19152 ft | 351 kts | 118° |
| 2026-04-28 21:47 | 40.18749 | 48.85952 | 18705 ft | 352 kts | 109° |
| 2026-04-28 21:47 | 40.18192 | 48.89073 | 18237 ft | 352 kts | 103° |
| 2026-04-28 21:48 | 40.17712 | 48.92196 | 17782 ft | 349 kts | 103° |
| 2026-04-28 21:48 | 40.17236 | 48.95285 | 17349 ft | 345 kts | 104° |
| 2026-04-28 21:48 | 40.16765 | 48.98313 | 16918 ft | 343 kts | 104° |
| 2026-04-28 21:48 | 40.16288 | 49.01353 | 16492 ft | 340 kts | 104° |
| 2026-04-28 21:49 | 40.15813 | 49.04369 | 16066 ft | 338 kts | 104° |
| 2026-04-28 21:49 | 40.15342 | 49.07375 | 15639 ft | 336 kts | 104° |
| 2026-04-28 21:49 | 40.14877 | 49.10354 | 15222 ft | 334 kts | 104° |
| 2026-04-28 21:49 | 40.14414 | 49.13328 | 14804 ft | 333 kts | 104° |
| 2026-04-28 21:50 | 40.13953 | 49.16285 | 14386 ft | 331 kts | 104° |
| 2026-04-28 21:50 | 40.13489 | 49.19228 | 13965 ft | 330 kts | 104° |
| 2026-04-28 21:50 | 40.13023 | 49.22159 | 13514 ft | 329 kts | 104° |
| 2026-04-28 21:50 | 40.12564 | 49.25035 | 13101 ft | 326 kts | 104° |
| 2026-04-28 21:51 | 40.12104 | 49.27919 | 12695 ft | 324 kts | 104° |
| 2026-04-28 21:51 | 40.11660 | 49.30797 | 12279 ft | 322 kts | 101° |
| 2026-04-28 21:51 | 40.11585 | 49.33723 | 11863 ft | 323 kts | 88° |
| 2026-04-28 21:51 | 40.11746 | 49.36642 | 11464 ft | 321 kts | 88° |
| 2026-04-28 21:52 | 40.11905 | 49.39547 | 11059 ft | 320 kts | 87° |
| 2026-04-28 21:52 | 40.12059 | 49.42438 | 10729 ft | 316 kts | 87° |
| 2026-04-28 21:52 | 40.12208 | 49.45253 | 10613 ft | 305 kts | 87° |
| 2026-04-28 21:52 | 40.12350 | 49.47984 | 10420 ft | 299 kts | 87° |
| 2026-04-28 21:53 | 40.12488 | 49.50638 | 10129 ft | 296 kts | 87° |
| 2026-04-28 21:53 | 40.12626 | 49.53314 | 9796 ft | 294 kts | 88° |
| 2026-04-28 21:53 | 40.12761 | 49.55975 | 9418 ft | 293 kts | 87° |
| 2026-04-28 21:53 | 40.12893 | 49.58620 | 9083 ft | 291 kts | 87° |
| 2026-04-28 21:54 | 40.13026 | 49.61246 | 8745 ft | 289 kts | 87° |
| 2026-04-28 21:54 | 40.13159 | 49.63833 | 8233 ft | 284 kts | 87° |
| 2026-04-28 21:54 | 40.13286 | 49.66375 | 7725 ft | 278 kts | 86° |
| 2026-04-28 21:54 | 40.13408 | 49.68849 | 7379 ft | 266 kts | 86° |
| 2026-04-28 21:55 | 40.13522 | 49.71155 | 7236 ft | 249 kts | 86° |
| 2026-04-28 21:55 | 40.13523 | 49.73326 | 7127 ft | 233 kts | 99° |
| 2026-04-28 21:55 | 40.13057 | 49.75293 | 7037 ft | 222 kts | 117° |
| 2026-04-28 21:55 | 40.12195 | 49.76923 | 7044 ft | 218 kts | 134° |
| 2026-04-28 21:56 | 40.11104 | 49.78305 | 7050 ft | 218 kts | 136° |
| 2026-04-28 21:56 | 40.10016 | 49.79674 | 6932 ft | 217 kts | 136° |
| 2026-04-28 21:56 | 40.08930 | 49.81043 | 6673 ft | 216 kts | 136° |
| 2026-04-28 21:56 | 40.07851 | 49.82407 | 6451 ft | 216 kts | 135° |
| 2026-04-28 21:57 | 40.06777 | 49.83772 | 6200 ft | 215 kts | 133° |
| 2026-04-28 21:57 | 40.05922 | 49.85324 | 6047 ft | 215 kts | 114° |
| 2026-04-28 21:57 | 40.05622 | 49.87204 | 5864 ft | 212 kts | 84° |
| 2026-04-28 21:57 | 40.06065 | 49.89018 | 5815 ft | 212 kts | 55° |
| 2026-04-28 21:58 | 40.07144 | 49.90305 | 5772 ft | 212 kts | 27° |
| 2026-04-28 21:58 | 40.08452 | 49.91204 | 5718 ft | 213 kts | 27° |
| 2026-04-28 21:58 | 40.09761 | 49.92106 | 5674 ft | 213 kts | 27° |
| 2026-04-28 21:58 | 40.11072 | 49.93012 | 5624 ft | 213 kts | 27° |
| 2026-04-28 21:59 | 40.12378 | 49.93919 | 5576 ft | 213 kts | 27° |
| 2026-04-28 21:59 | 40.13685 | 49.94828 | 5522 ft | 213 kts | 27° |
| 2026-04-28 21:59 | 40.14970 | 49.95722 | 5479 ft | 212 kts | 27° |
| 2026-04-28 22:00 | 40.17579 | 49.97534 | 5380 ft | 212 kts | 27° |
| 2026-04-28 22:00 | 40.18797 | 49.98381 | 5308 ft | 212 kts | 27° |
| 2026-04-28 22:00 | 40.20092 | 49.99284 | 5038 ft | 211 kts | 27° |
| 2026-04-28 22:00 | 40.21386 | 50.00187 | 4778 ft | 210 kts | 26° |
| 2026-04-28 22:01 | 40.22672 | 50.01083 | 4525 ft | 209 kts | 27° |
| 2026-04-28 22:01 | 40.23944 | 50.01973 | 4327 ft | 205 kts | 27° |
| 2026-04-28 22:01 | 40.25162 | 50.02827 | 4195 ft | 197 kts | 27° |
| 2026-04-28 22:01 | 40.26355 | 50.03662 | 3960 ft | 196 kts | 27° |
| 2026-04-28 22:02 | 40.27586 | 50.04523 | 3503 ft | 205 kts | 27° |
| 2026-04-28 22:02 | 40.28866 | 50.05415 | 3047 ft | 212 kts | 27° |
| 2026-04-28 22:02 | 40.30200 | 50.06290 | 2573 ft | 217 kts | 18° |
| 2026-04-28 22:02 | 40.31689 | 50.06533 | 2289 ft | 214 kts | 360° |
| 2026-04-28 22:03 | 40.33122 | 50.06510 | 2152 ft | 197 kts | 0° |
| 2026-04-28 22:03 | 40.34428 | 50.06492 | 2070 ft | 179 kts | 0° |
| 2026-04-28 22:03 | 40.35592 | 50.06474 | 1999 ft | 163 kts | 0° |
| 2026-04-28 22:03 | 40.36700 | 50.06458 | 1803 ft | 154 kts | 0° |
| 2026-04-28 22:04 | 40.37761 | 50.06443 | 1589 ft | 151 kts | 359° |
| 2026-04-28 22:04 | 40.38805 | 50.06427 | 1388 ft | 149 kts | 359° |
| 2026-04-28 22:04 | 40.39843 | 50.06411 | 1191 ft | 148 kts | 360° |
| 2026-04-28 22:04 | 40.40854 | 50.06396 | 984 ft | 139 kts | 359° |
| 2026-04-28 22:05 | 40.41789 | 50.06382 | 796 ft | 131 kts | 357° |
| 2026-04-28 22:05 | 40.42692 | 50.06369 | 629 ft | 128 kts | 356° |
| 2026-04-28 22:05 | 40.43569 | 50.06358 | 453 ft | 127 kts | 356° |
| 2026-04-28 22:05 | 40.44453 | 50.06351 | 294 ft | 127 kts | 358° |
| 2026-04-28 22:06 | 40.45332 | 50.06342 | 126 ft | 127 kts | 354° |
| 2026-04-28 22:06 | 40.46202 | 50.06313 | 15 ft | 118 kts | 357° |
| 2026-04-28 22:06 | 40.46927 | 50.06295 | 14 ft | 90 kts | 0° |
| 2026-04-28 22:06 | 40.47449 | 50.06285 | 11 ft | 61 kts | 1° |
| 2026-04-28 22:07 | 40.47784 | 50.06285 | 14 ft | 29 kts | 2° |
| 2026-04-28 22:07 | 40.47967 | 50.06290 | 13 ft | 26 kts | 358° |
| 2026-04-28 22:07 | 40.48152 | 50.06287 | 14 ft | 27 kts | 359° |
| 2026-04-28 22:07 | 40.48340 | 50.06284 | 11 ft | 22 kts | 1° |
| 2026-04-28 22:08 | 40.48445 | 50.06282 | 12 ft | 15 kts | 353° |
| 2026-04-28 22:08 | 40.48502 | 50.06176 | 13 ft | 16 kts | 271° |
| 2026-04-28 22:08 | 40.48466 | 50.06076 | 14 ft | 13 kts | 201° |
| 2026-04-28 22:08 | 40.48383 | 50.06069 | 14 ft | 12 kts | 179° |
| 2026-04-28 22:09 | 40.48297 | 50.06070 | 15 ft | 12 kts | 180° |
| 2026-04-28 22:09 | 40.48202 | 50.06071 | 14 ft | 15 kts | 180° |
| 2026-04-28 22:09 | 40.48094 | 50.06073 | 14 ft | 16 kts | 180° |
| 2026-04-28 22:09 | 40.47981 | 50.06074 | 15 ft | 17 kts | 179° |
| 2026-04-28 22:10 | 40.47852 | 50.06077 | 15 ft | 20 kts | 179° |
| 2026-04-28 22:10 | 40.47745 | 50.06079 | 14 ft | 16 kts | 180° |
| 2026-04-28 22:10 | 40.47622 | 50.06076 | 15 ft | 19 kts | 181° |
| 2026-04-28 22:10 | 40.47478 | 50.06079 | 14 ft | 22 kts | 176° |
| 2026-04-28 22:11 | 40.47381 | 50.06082 | 14 ft | 13 kts | 179° |
| 2026-04-28 22:11 | 40.47277 | 50.06083 | 14 ft | 16 kts | 179° |
| 2026-04-28 22:11 | 40.47162 | 50.06085 | 14 ft | 18 kts | 179° |
| 2026-04-28 22:11 | 40.47068 | 50.06088 | 14 ft | 12 kts | 179° |
| 2026-04-28 22:12 | 40.46988 | 50.06084 | 14 ft | 11 kts | 188° |
| 2026-04-28 22:12 | 40.46945 | 50.06018 | 15 ft | 11 kts | 263° |
| 2026-04-28 22:12 | 40.46941 | 50.05910 | 15 ft | 13 kts | 268° |
| 2026-04-28 22:12 | 40.46940 | 50.05784 | 15 ft | 15 kts | 268° |
| 2026-04-28 22:13 | 40.46937 | 50.05656 | 15 ft | 12 kts | 268° |
| 2026-04-28 22:13 | 40.46935 | 50.05543 | 15 ft | 12 kts | 268° |
| 2026-04-28 22:13 | 40.46931 | 50.05448 | 15 ft | 9 kts | 261° |
| 2026-04-28 22:13 | 40.46886 | 50.05392 | 15 ft | 10 kts | 199° |
| 2026-04-28 22:14 | 40.46825 | 50.05390 | 15 ft | 9 kts | 178° |
| 2026-04-28 22:14 | 40.46780 | 50.05352 | 15 ft | 6 kts | 229° |
| 2026-04-28 22:14 | 40.46761 | 50.05323 | 15 ft | 2 kts | 229° |
| 2026-04-28 22:14 | 40.46753 | 50.05311 | 15 ft | 0 kts | 229° |